createdAt,value
2017-10-03T00:01:08.556Z,23.2
2017-10-03T00:02:17.276Z,23.28
2017-10-03T00:03:25.954Z,23.2
2017-10-03T00:04:35.884Z,23.25
2017-10-03T00:05:44.890Z,23.2
2017-10-03T00:06:54.197Z,23.12
2017-10-03T00:08:03.194Z,23.17
2017-10-03T00:09:12.219Z,23.15
2017-10-03T00:10:21.556Z,23.19
2017-10-03T00:11:31.263Z,23.16
2017-10-03T00:12:39.951Z,23.16
2017-10-03T00:13:49.261Z,23.28
2017-10-03T00:14:58.282Z,23.17
2017-10-03T00:16:08.267Z,23.16
2017-10-03T00:17:17.680Z,23.22
2017-10-03T00:18:26.358Z,23.17
2017-10-03T00:19:35.708Z,23.15
2017-10-03T00:20:44.690Z,23.17
2017-10-03T00:21:54.013Z,23.2
2017-10-03T00:23:03.185Z,23.16
2017-10-03T00:24:12.510Z,23.17
2017-10-03T00:25:22.175Z,23.31
2017-10-03T00:26:30.886Z,23.25
2017-10-03T00:27:39.902Z,23.22
2017-10-03T00:28:49.205Z,23.27
2017-10-03T00:29:58.218Z,23.27
2017-10-03T00:31:07.528Z,23.17
2017-10-03T00:32:16.857Z,23.27
2017-10-03T00:33:25.866Z,23.25
2017-10-03T00:34:34.699Z,23.25
2017-10-03T00:35:44.059Z,23.27
2017-10-03T00:36:53.110Z,23.25
2017-10-03T00:38:02.140Z,23.15
2017-10-03T00:39:11.145Z,23.17
2017-10-03T00:40:20.471Z,23.23
2017-10-03T00:41:29.208Z,23.23
2017-10-03T00:42:37.891Z,23.28
2017-10-03T00:43:46.590Z,23.25
2017-10-03T00:44:55.930Z,23.15
2017-10-03T00:46:05.254Z,23.25
2017-10-03T00:47:14.566Z,23.19
2017-10-03T00:48:23.558Z,23.25
2017-10-03T00:49:32.553Z,23.25
2017-10-03T00:50:41.882Z,23.15
2017-10-03T00:51:51.021Z,23.17
2017-10-03T00:52:59.719Z,23.2
2017-10-03T00:54:08.401Z,23.27
2017-10-03T00:55:17.131Z,23.22
2017-10-03T00:56:25.823Z,23.22
2017-10-03T00:57:34.811Z,23.23
2017-10-03T00:58:43.487Z,23.2
2017-10-03T00:59:52.529Z,23.22
2017-10-03T01:01:01.279Z,23.17
2017-10-03T01:02:09.953Z,23.22
2017-10-03T01:03:19.237Z,23.22
2017-10-03T01:04:28.340Z,23.2
2017-10-03T01:05:37.964Z,23.22
2017-10-03T01:06:47.362Z,23.2
2017-10-03T01:07:56.365Z,23.23
2017-10-03T01:09:05.201Z,23.13
2017-10-03T01:10:13.956Z,23.19
2017-10-03T01:11:23.281Z,23.16
2017-10-03T01:12:32.568Z,23.17
2017-10-03T01:13:42.218Z,23.25
2017-10-03T01:14:51.872Z,23.2
2017-10-03T01:16:00.536Z,23.15
2017-10-03T01:17:10.503Z,23.23
2017-10-03T01:18:19.301Z,23.25
2017-10-03T01:19:28.294Z,23.16
2017-10-03T01:20:37.125Z,23.17
2017-10-03T01:21:46.747Z,23.2
2017-10-03T01:22:56.081Z,23.19
2017-10-03T01:24:05.777Z,23.15
2017-10-03T01:25:14.766Z,23.19
2017-10-03T01:26:24.056Z,23.13
2017-10-03T01:27:33.123Z,23.15
2017-10-03T01:28:42.425Z,23.13
2017-10-03T01:29:51.427Z,23.19
2017-10-03T01:31:00.180Z,23.16
2017-10-03T01:32:09.331Z,23.2
2017-10-03T01:33:18.060Z,23.16
2017-10-03T01:34:27.071Z,23.19
2017-10-03T01:35:36.694Z,23.2
2017-10-03T01:36:45.369Z,23.15
2017-10-03T01:37:54.496Z,23.15
2017-10-03T01:39:03.519Z,23.23
2017-10-03T01:40:12.513Z,23.16
2017-10-03T01:41:21.498Z,23.2
2017-10-03T01:42:30.211Z,23.19
2017-10-03T01:43:39.762Z,23.2
2017-10-03T01:44:48.536Z,23.17
2017-10-03T01:45:58.048Z,23.13
2017-10-03T01:47:06.723Z,23.15
2017-10-03T01:48:15.837Z,23.13
2017-10-03T01:49:25.501Z,23.17
2017-10-03T01:50:34.648Z,23.2
2017-10-03T01:51:43.821Z,23.16
2017-10-03T01:52:53.573Z,23.15
2017-10-03T01:54:02.622Z,23.19
2017-10-03T01:55:12.327Z,23.2
2017-10-03T01:56:21.658Z,23.15
2017-10-03T01:57:31.313Z,23.13
2017-10-03T01:58:41.296Z,23.19
2017-10-03T01:59:50.352Z,23.15
2017-10-03T02:00:59.039Z,23.15
2017-10-03T02:02:08.023Z,23.15
2017-10-03T02:03:17.318Z,23.16
2017-10-03T02:04:26.926Z,23.1
2017-10-03T02:05:35.931Z,23.07
2017-10-03T02:06:45.301Z,23.16
2017-10-03T02:07:53.973Z,23.1
2017-10-03T02:09:02.999Z,23.12
2017-10-03T02:10:12.613Z,23.04
2017-10-03T02:11:21.604Z,23.09
2017-10-03T02:12:30.602Z,23.13
2017-10-03T02:13:39.582Z,23.16
2017-10-03T02:14:48.865Z,23.15
2017-10-03T02:15:57.546Z,23.05
2017-10-03T02:17:06.845Z,23.09
2017-10-03T02:18:15.881Z,23.09
2017-10-03T02:19:25.516Z,23.13
2017-10-03T02:20:34.502Z,23.07
2017-10-03T02:21:43.158Z,23.04
2017-10-03T02:22:51.835Z,23.15
2017-10-03T02:24:00.852Z,23
2017-10-03T02:25:09.527Z,23.12
2017-10-03T02:26:18.532Z,23.05
2017-10-03T02:27:27.840Z,23.09
2017-10-03T02:28:37.147Z,23.04
2017-10-03T02:29:45.810Z,23.07
2017-10-03T02:30:55.427Z,23.15
2017-10-03T02:32:04.410Z,23.1
2017-10-03T02:33:13.407Z,23.02
2017-10-03T02:34:22.401Z,23.1
2017-10-03T02:35:31.705Z,23.13
2017-10-03T02:36:41.337Z,23.04
2017-10-03T02:37:50.663Z,23.07
2017-10-03T02:38:59.988Z,23.13
2017-10-03T02:40:09.314Z,23.05
2017-10-03T02:41:18.690Z,23.1
2017-10-03T02:42:27.680Z,23.1
2017-10-03T02:43:36.672Z,23.1
2017-10-03T02:44:45.341Z,22.95
2017-10-03T02:45:54.945Z,23.07
2017-10-03T02:47:03.934Z,23.01
2017-10-03T02:48:13.544Z,23.12
2017-10-03T02:49:22.532Z,23.13
2017-10-03T02:50:31.510Z,23.02
2017-10-03T02:51:40.802Z,23.07
2017-10-03T02:52:49.463Z,23.05
2017-10-03T02:53:58.452Z,23.02
2017-10-03T02:55:08.081Z,23.01
2017-10-03T02:56:17.051Z,23.04
2017-10-03T02:57:26.049Z,23.13
2017-10-03T02:58:35.179Z,23.05
2017-10-03T02:59:44.490Z,23.09
2017-10-03T03:00:53.490Z,23.1
2017-10-03T03:02:02.474Z,23.05
2017-10-03T03:03:11.469Z,23.05
2017-10-03T03:04:20.462Z,23.05
2017-10-03T03:05:29.767Z,23.01
2017-10-03T03:06:38.758Z,23.02
2017-10-03T03:07:47.767Z,23.05
2017-10-03T03:08:56.757Z,23.09
2017-10-03T03:10:05.886Z,22.98
2017-10-03T03:11:15.186Z,23.05
2017-10-03T03:12:24.173Z,23.05
2017-10-03T03:13:32.843Z,23.05
2017-10-03T03:14:41.835Z,23.02
2017-10-03T03:15:51.594Z,23.07
2017-10-03T03:17:00.286Z,23.1
2017-10-03T03:18:09.582Z,23.05
2017-10-03T03:19:18.891Z,23.1
2017-10-03T03:20:27.884Z,23.07
2017-10-03T03:21:37.510Z,23.05
2017-10-03T03:22:46.498Z,23.04
2017-10-03T03:23:55.489Z,23.02
2017-10-03T03:25:04.162Z,23.05
2017-10-03T03:26:12.830Z,23.07
2017-10-03T03:27:22.221Z,23.05
2017-10-03T03:28:31.218Z,23.04
2017-10-03T03:29:40.211Z,23.09
2017-10-03T03:30:49.185Z,23.01
2017-10-03T03:31:58.499Z,23.04
2017-10-03T03:33:07.491Z,23
2017-10-03T03:34:17.110Z,23.1
2017-10-03T03:35:26.090Z,23.02
2017-10-03T03:36:34.769Z,23.07
2017-10-03T03:37:43.747Z,23.05
2017-10-03T03:38:52.731Z,23.04
2017-10-03T03:40:01.732Z,23
2017-10-03T03:41:11.031Z,23.05
2017-10-03T03:42:20.338Z,23.07
2017-10-03T03:43:29.673Z,23.02
2017-10-03T03:44:38.502Z,23.02
2017-10-03T03:45:47.502Z,23.07
2017-10-03T03:46:56.187Z,23.02
2017-10-03T03:48:04.854Z,23.09
2017-10-03T03:49:14.168Z,23.05
2017-10-03T03:50:22.993Z,23.09
2017-10-03T03:51:31.973Z,23.01
2017-10-03T03:52:40.689Z,23.02
2017-10-03T03:53:49.683Z,22.98
2017-10-03T03:54:58.676Z,23
2017-10-03T03:56:07.958Z,23
2017-10-03T03:57:17.583Z,23.01
2017-10-03T03:58:26.323Z,23.04
2017-10-03T03:59:35.621Z,23.05
2017-10-03T04:00:44.933Z,23
2017-10-03T04:01:54.230Z,23.05
2017-10-03T04:03:02.904Z,23.01
2017-10-03T04:04:11.586Z,22.97
2017-10-03T04:05:20.260Z,23
2017-10-03T04:06:28.925Z,22.98
2017-10-03T04:07:37.926Z,22.95
2017-10-03T04:08:46.614Z,22.98
2017-10-03T04:09:55.919Z,22.98
2017-10-03T04:11:04.593Z,22.97
2017-10-03T04:12:13.284Z,22.97
2017-10-03T04:13:22.591Z,22.95
2017-10-03T04:14:31.254Z,23.01
2017-10-03T04:15:40.880Z,23.02
2017-10-03T04:16:49.869Z,23.04
2017-10-03T04:17:59.152Z,22.88
2017-10-03T04:19:08.004Z,22.95
2017-10-03T04:20:17.052Z,23
2017-10-03T04:21:26.044Z,22.94
2017-10-03T04:22:35.014Z,22.98
2017-10-03T04:23:44.931Z,23.01
2017-10-03T04:24:53.768Z,22.97
2017-10-03T04:26:02.782Z,22.94
2017-10-03T04:27:11.826Z,22.98
2017-10-03T04:28:21.120Z,22.95
2017-10-03T04:29:30.420Z,23
2017-10-03T04:30:40.029Z,22.97
2017-10-03T04:31:49.621Z,22.98
2017-10-03T04:32:58.291Z,23.02
2017-10-03T04:34:07.310Z,22.94
2017-10-03T04:35:16.947Z,22.97
2017-10-03T04:36:25.942Z,22.94
2017-10-03T04:37:35.266Z,22.94
2017-10-03T04:38:44.238Z,22.97
2017-10-03T04:39:53.558Z,22.94
2017-10-03T04:41:02.545Z,22.94
2017-10-03T04:42:11.540Z,22.98
2017-10-03T04:43:20.204Z,23.02
2017-10-03T04:44:29.501Z,22.95
2017-10-03T04:45:38.500Z,22.94
2017-10-03T04:46:47.476Z,23.01
2017-10-03T04:47:56.626Z,23.02
2017-10-03T04:49:05.631Z,22.97
2017-10-03T04:50:14.298Z,22.97
2017-10-03T04:51:23.911Z,22.92
2017-10-03T04:52:32.967Z,22.92
2017-10-03T04:53:42.258Z,22.94
2017-10-03T04:54:51.584Z,22.98
2017-10-03T04:56:01.014Z,22.97
2017-10-03T04:57:10.015Z,22.9
2017-10-03T04:58:18.712Z,22.94
2017-10-03T04:59:27.532Z,22.95
2017-10-03T05:00:36.528Z,22.94
2017-10-03T05:01:45.208Z,22.98
2017-10-03T05:02:54.200Z,22.95
2017-10-03T05:04:03.203Z,22.92
2017-10-03T05:05:11.970Z,22.94
2017-10-03T05:06:21.290Z,22.94
2017-10-03T05:07:30.283Z,22.94
2017-10-03T05:08:39.885Z,22.94
2017-10-03T05:09:49.188Z,22.92
2017-10-03T05:10:58.165Z,22.97
2017-10-03T05:12:07.163Z,22.91
2017-10-03T05:13:16.158Z,22.94
2017-10-03T05:14:25.156Z,22.92
2017-10-03T05:15:33.838Z,22.91
2017-10-03T05:16:43.458Z,22.94
2017-10-03T05:17:52.132Z,22.94
2017-10-03T05:19:00.803Z,22.98
2017-10-03T05:20:10.419Z,22.9
2017-10-03T05:21:19.727Z,22.9
2017-10-03T05:22:29.517Z,22.9
2017-10-03T05:23:38.801Z,22.86
2017-10-03T05:24:47.792Z,22.9
2017-10-03T05:25:56.790Z,22.97
2017-10-03T05:27:05.468Z,22.97
2017-10-03T05:28:14.358Z,22.91
2017-10-03T05:29:23.345Z,22.92
2017-10-03T05:30:32.969Z,22.95
2017-10-03T05:31:42.274Z,22.97
2017-10-03T05:32:50.965Z,22.95
2017-10-03T05:34:00.558Z,22.88
2017-10-03T05:35:09.857Z,22.94
2017-10-03T05:36:18.510Z,22.92
2017-10-03T05:37:27.802Z,22.95
2017-10-03T05:38:37.097Z,22.97
2017-10-03T05:39:46.873Z,22.94
2017-10-03T05:40:55.861Z,22.97
2017-10-03T05:42:04.521Z,22.97
2017-10-03T05:43:13.505Z,22.97
2017-10-03T05:44:22.478Z,22.95
2017-10-03T05:45:31.981Z,22.94
2017-10-03T05:46:41.922Z,22.94
2017-10-03T05:47:51.231Z,22.88
2017-10-03T05:49:00.223Z,22.95
2017-10-03T05:50:09.522Z,22.9
2017-10-03T05:51:18.199Z,23
2017-10-03T05:52:26.877Z,22.86
2017-10-03T05:53:35.857Z,22.98
2017-10-03T05:54:44.557Z,22.92
2017-10-03T05:55:54.184Z,22.95
2017-10-03T05:57:03.182Z,22.97
2017-10-03T05:58:12.482Z,22.98
2017-10-03T05:59:21.175Z,22.94
2017-10-03T06:00:30.159Z,22.95
2017-10-03T06:01:38.829Z,22.95
2017-10-03T06:02:47.832Z,22.94
2017-10-03T06:03:57.451Z,22.92
2017-10-03T06:05:06.436Z,22.97
2017-10-03T06:06:15.471Z,22.97
2017-10-03T06:07:24.777Z,23.01
2017-10-03T06:08:34.391Z,22.95
2017-10-03T06:09:43.380Z,22.95
2017-10-03T06:10:52.384Z,23
2017-10-03T06:12:01.382Z,22.95
2017-10-03T06:13:10.704Z,23
2017-10-03T06:14:19.688Z,23.02
2017-10-03T06:15:28.669Z,23.05
2017-10-03T06:16:37.658Z,23.01
2017-10-03T06:17:46.663Z,23.05
2017-10-03T06:18:55.655Z,23.04
2017-10-03T06:20:04.782Z,23.01
2017-10-03T06:21:13.454Z,23.07
2017-10-03T06:22:22.451Z,23.01
2017-10-03T06:23:31.768Z,23.13
2017-10-03T06:24:41.089Z,23.07
2017-10-03T06:25:50.227Z,23.07
2017-10-03T06:26:59.832Z,23.05
2017-10-03T06:28:09.137Z,23.01
2017-10-03T06:29:18.119Z,23.01
2017-10-03T06:30:27.803Z,23.01
2017-10-03T06:31:37.456Z,23.05
2017-10-03T06:32:46.130Z,23.01
2017-10-03T06:33:54.795Z,23.02
2017-10-03T06:35:04.090Z,23.15
2017-10-03T06:36:12.767Z,23.12
2017-10-03T06:37:21.752Z,23.05
2017-10-03T06:38:31.398Z,23.04
2017-10-03T06:39:40.375Z,23.15
2017-10-03T06:40:49.374Z,23.15
2017-10-03T06:41:58.041Z,23.15
2017-10-03T06:43:06.723Z,23.12
2017-10-03T06:44:15.714Z,23.15
2017-10-03T06:45:25.342Z,23.17
2017-10-03T06:46:34.340Z,23.12
2017-10-03T06:47:43.014Z,23.16
2017-10-03T06:48:52.000Z,23.15
2017-10-03T06:50:00.988Z,23.22
2017-10-03T06:51:10.618Z,23.19
2017-10-03T06:52:19.942Z,23.22
2017-10-03T06:53:28.608Z,23.19
2017-10-03T06:54:37.616Z,23.17
2017-10-03T06:55:47.237Z,23.22
2017-10-03T06:56:56.547Z,23.17
2017-10-03T06:58:06.165Z,23.19
2017-10-03T06:59:15.159Z,23.2
2017-10-03T07:00:24.142Z,23.19
2017-10-03T07:01:32.824Z,23.23
2017-10-03T07:02:41.841Z,23.23
2017-10-03T07:03:50.520Z,23.16
2017-10-03T07:04:59.525Z,23.25
2017-10-03T07:06:08.924Z,23.23
2017-10-03T07:07:18.225Z,23.28
2017-10-03T07:08:27.516Z,23.19
2017-10-03T07:09:37.147Z,23.17
2017-10-03T07:10:46.467Z,23.31
2017-10-03T07:11:55.449Z,23.28
2017-10-03T07:13:05.385Z,23.28
2017-10-03T07:14:14.685Z,23.23
2017-10-03T07:15:23.689Z,23.28
2017-10-03T07:16:32.686Z,23.32
2017-10-03T07:17:41.822Z,23.17
2017-10-03T07:18:51.437Z,23.28
2017-10-03T07:20:00.145Z,23.23
2017-10-03T07:21:09.483Z,23.23
2017-10-03T07:22:18.786Z,23.33
2017-10-03T07:23:27.779Z,23.28
2017-10-03T07:24:37.073Z,23.35
2017-10-03T07:25:46.096Z,23.32
2017-10-03T07:26:54.780Z,23.39
2017-10-03T07:28:04.107Z,23.42
2017-10-03T07:29:13.472Z,23.43
2017-10-03T07:30:22.778Z,23.46
2017-10-03T07:31:31.446Z,23.4
2017-10-03T07:32:40.436Z,23.47
2017-10-03T07:33:49.108Z,23.48
2017-10-03T07:34:58.419Z,23.42
2017-10-03T07:36:08.037Z,23.47
2017-10-03T07:37:17.039Z,23.39
2017-10-03T07:38:26.676Z,23.4
2017-10-03T07:39:35.987Z,23.47
2017-10-03T07:40:45.264Z,23.5
2017-10-03T07:41:54.256Z,23.48
2017-10-03T07:43:03.254Z,23.4
2017-10-03T07:44:12.276Z,23.47
2017-10-03T07:45:21.301Z,23.43
2017-10-03T07:46:30.092Z,23.39
2017-10-03T07:47:39.729Z,23.4
2017-10-03T07:48:48.742Z,23.4
2017-10-03T07:49:58.058Z,23.42
2017-10-03T07:51:07.367Z,23.47
2017-10-03T07:52:16.140Z,23.39
2017-10-03T07:53:24.872Z,23.4
2017-10-03T07:54:34.191Z,23.4
2017-10-03T07:55:43.203Z,23.46
2017-10-03T07:56:52.519Z,23.42
2017-10-03T07:58:01.786Z,23.43
2017-10-03T07:59:11.181Z,23.5
2017-10-03T08:00:20.815Z,23.42
2017-10-03T08:01:30.140Z,23.48
2017-10-03T08:02:39.181Z,23.48
2017-10-03T08:03:48.915Z,23.43
2017-10-03T08:04:57.666Z,23.48
2017-10-03T08:06:07.073Z,23.48
2017-10-03T08:07:16.126Z,23.51
2017-10-03T08:08:25.121Z,23.53
2017-10-03T08:09:34.189Z,23.48
2017-10-03T08:10:43.831Z,23.48
2017-10-03T08:11:53.531Z,23.48
2017-10-03T08:13:02.214Z,23.5
2017-10-03T08:14:10.888Z,23.48
2017-10-03T08:15:20.523Z,23.48
2017-10-03T08:16:30.141Z,23.53
2017-10-03T08:17:38.809Z,23.55
2017-10-03T08:18:48.138Z,23.54
2017-10-03T08:19:57.480Z,23.55
2017-10-03T08:21:06.573Z,23.58
2017-10-03T08:22:15.587Z,23.58
2017-10-03T08:23:24.896Z,23.6
2017-10-03T08:24:33.884Z,23.57
2017-10-03T08:25:43.206Z,23.54
2017-10-03T08:26:52.022Z,23.58
2017-10-03T08:28:01.306Z,23.63
2017-10-03T08:29:09.972Z,23.63
2017-10-03T08:30:18.978Z,23.66
2017-10-03T08:31:27.702Z,23.66
2017-10-03T08:32:37.057Z,23.63
2017-10-03T08:33:45.743Z,23.65
2017-10-03T08:34:55.050Z,23.65
2017-10-03T08:36:04.079Z,23.63
2017-10-03T08:37:13.174Z,23.63
2017-10-03T08:38:22.016Z,23.63
2017-10-03T08:39:31.343Z,23.66
2017-10-03T08:40:40.655Z,23.65
2017-10-03T08:41:49.636Z,23.66
2017-10-03T08:42:58.327Z,23.69
2017-10-03T08:44:07.313Z,23.61
2017-10-03T08:45:16.663Z,23.7
2017-10-03T08:46:25.964Z,23.7
2017-10-03T08:47:34.657Z,23.69
2017-10-03T08:48:43.696Z,23.63
2017-10-03T08:49:53.313Z,23.69
2017-10-03T08:51:02.599Z,23.66
2017-10-03T08:52:11.278Z,23.66
2017-10-03T08:53:20.247Z,23.66
2017-10-03T08:54:30.183Z,23.68
2017-10-03T08:55:38.861Z,23.68
2017-10-03T08:56:47.847Z,23.63
2017-10-03T08:57:56.845Z,23.79
2017-10-03T08:59:05.827Z,23.72
2017-10-03T09:00:14.860Z,23.7
2017-10-03T09:01:23.883Z,23.7
2017-10-03T09:02:32.882Z,23.76
2017-10-03T09:03:41.887Z,23.7
2017-10-03T09:04:50.566Z,23.61
2017-10-03T09:05:59.245Z,23.6
2017-10-03T09:07:08.336Z,23.58
2017-10-03T09:08:17.324Z,23.58
2017-10-03T09:09:26.331Z,23.69
2017-10-03T09:10:35.638Z,23.65
2017-10-03T09:11:44.346Z,23.65
2017-10-03T09:12:53.163Z,23.63
2017-10-03T09:14:01.850Z,23.61
2017-10-03T09:15:10.875Z,23.6
2017-10-03T09:16:19.906Z,23.61
2017-10-03T09:17:29.237Z,23.66
2017-10-03T09:18:39.155Z,23.7
2017-10-03T09:19:47.825Z,23.65
2017-10-03T09:20:56.509Z,23.75
2017-10-03T09:22:05.797Z,23.72
2017-10-03T09:23:14.772Z,23.68
2017-10-03T09:24:23.893Z,23.65
2017-10-03T09:25:33.180Z,23.72
2017-10-03T09:26:42.469Z,23.7
2017-10-03T09:27:51.772Z,23.69
2017-10-03T09:29:00.753Z,23.65
2017-10-03T09:30:10.062Z,23.84
2017-10-03T09:31:18.735Z,23.73
2017-10-03T09:32:27.713Z,23.75
2017-10-03T09:33:36.389Z,23.76
2017-10-03T09:34:45.696Z,23.76
2017-10-03T09:35:54.685Z,23.61
2017-10-03T09:37:04.061Z,23.66
2017-10-03T09:38:13.078Z,23.76
2017-10-03T09:39:22.433Z,23.69
2017-10-03T09:40:31.419Z,23.63
2017-10-03T09:41:41.049Z,23.7
2017-10-03T09:42:49.722Z,23.63
2017-10-03T09:43:59.332Z,23.68
2017-10-03T09:45:08.005Z,23.66
2017-10-03T09:46:16.980Z,23.72
2017-10-03T09:47:26.287Z,23.75
2017-10-03T09:48:35.284Z,23.65
2017-10-03T09:49:44.288Z,23.79
2017-10-03T09:50:53.890Z,23.58
2017-10-03T09:52:02.556Z,23.72
2017-10-03T09:53:11.871Z,23.65
2017-10-03T09:54:20.590Z,23.63
2017-10-03T09:55:29.270Z,23.6
2017-10-03T09:56:38.268Z,23.6
2017-10-03T09:57:46.949Z,23.55
2017-10-03T09:58:56.083Z,23.57
2017-10-03T10:00:05.064Z,23.57
2017-10-03T10:01:14.371Z,23.51
2017-10-03T10:02:23.680Z,23.51
2017-10-03T10:03:32.372Z,23.53
2017-10-03T10:07:15.239Z,23.51
2017-10-03T10:08:24.571Z,23.57
2017-10-03T10:09:33.866Z,23.54
2017-10-03T10:10:42.864Z,23.63
2017-10-03T10:11:51.841Z,23.65
2017-10-03T10:13:01.459Z,23.65
2017-10-03T10:14:10.454Z,23.65
2017-10-03T10:15:19.812Z,23.68
2017-10-03T10:16:28.829Z,23.69
2017-10-03T10:17:38.142Z,23.63
2017-10-03T10:18:47.477Z,23.6
2017-10-03T10:19:56.784Z,23.68
2017-10-03T10:21:05.457Z,23.68
2017-10-03T10:22:14.756Z,23.65
2017-10-03T10:23:23.743Z,23.65
2017-10-03T10:24:33.203Z,23.61
2017-10-03T10:25:41.967Z,23.63
2017-10-03T10:26:51.596Z,23.65
2017-10-03T10:28:00.943Z,23.61
2017-10-03T10:29:09.959Z,23.61
2017-10-03T10:30:18.977Z,23.58
2017-10-03T10:31:27.995Z,23.66
2017-10-03T10:32:37.017Z,23.68
2017-10-03T10:33:46.354Z,23.7
2017-10-03T10:34:55.678Z,23.7
2017-10-03T10:36:04.455Z,23.7
2017-10-03T10:37:13.433Z,23.73
2017-10-03T10:38:22.731Z,23.66
2017-10-03T10:39:32.051Z,23.73
2017-10-03T10:40:40.733Z,23.79
2017-10-03T10:41:50.039Z,23.73
2017-10-03T10:42:59.343Z,23.78
2017-10-03T10:44:08.660Z,23.78
2017-10-03T10:45:17.645Z,23.78
2017-10-03T10:46:26.642Z,23.76
2017-10-03T10:47:36.297Z,23.9
2017-10-03T10:48:44.964Z,23.8
2017-10-03T10:49:53.982Z,23.76
2017-10-03T10:51:02.957Z,23.73
2017-10-03T10:52:12.050Z,23.72
2017-10-03T10:53:20.749Z,23.69
2017-10-03T10:54:29.444Z,23.76
2017-10-03T10:55:38.435Z,23.7
2017-10-03T10:56:47.109Z,23.7
2017-10-03T10:57:56.092Z,23.69
2017-10-03T10:59:05.091Z,23.66
2017-10-03T11:00:14.102Z,23.65
2017-10-03T11:01:23.406Z,23.66
2017-10-03T11:02:32.410Z,23.7
2017-10-03T11:03:41.083Z,23.72
2017-10-03T11:04:50.394Z,23.7
2017-10-03T11:05:59.692Z,23.69
2017-10-03T11:07:08.706Z,23.63
2017-10-03T11:08:18.030Z,23.69
2017-10-03T11:09:27.359Z,23.68
2017-10-03T11:10:36.692Z,23.73
2017-10-03T11:11:45.367Z,23.65
2017-10-03T11:12:54.668Z,23.79
2017-10-03T11:14:03.976Z,23.84
2017-10-03T11:15:13.058Z,23.78
2017-10-03T11:16:21.735Z,23.8
2017-10-03T11:17:30.722Z,23.72
2017-10-03T11:18:40.043Z,23.78
2017-10-03T11:19:49.756Z,23.75
2017-10-03T11:20:58.752Z,23.76
2017-10-03T11:22:07.757Z,23.69
2017-10-03T11:23:16.452Z,23.76
2017-10-03T11:24:25.442Z,23.63
2017-10-03T11:25:34.414Z,23.6
2017-10-03T11:26:43.766Z,23.63
2017-10-03T11:27:52.792Z,23.61
2017-10-03T11:29:01.811Z,23.63
2017-10-03T11:30:10.499Z,23.63
2017-10-03T11:31:19.522Z,23.63
2017-10-03T11:32:28.514Z,23.65
2017-10-03T11:33:37.199Z,23.58
2017-10-03T11:34:46.198Z,23.65
2017-10-03T11:35:55.802Z,23.66
2017-10-03T11:37:04.470Z,23.63
2017-10-03T11:38:13.473Z,23.63
2017-10-03T11:39:22.290Z,23.63
2017-10-03T11:40:31.264Z,23.78
2017-10-03T11:41:39.982Z,23.63
2017-10-03T11:42:49.004Z,23.61
2017-10-03T11:43:57.687Z,23.69
2017-10-03T11:45:07.308Z,23.63
2017-10-03T11:46:16.612Z,23.7
2017-10-03T11:47:25.589Z,23.76
2017-10-03T11:48:34.925Z,23.68
2017-10-03T11:49:43.915Z,23.73
2017-10-03T11:50:53.217Z,23.65
2017-10-03T11:52:02.524Z,23.7
2017-10-03T11:53:11.902Z,23.76
2017-10-03T11:54:20.953Z,23.68
2017-10-03T11:55:30.255Z,23.68
2017-10-03T11:56:39.908Z,23.66
2017-10-03T11:57:48.911Z,23.63
2017-10-03T11:58:57.904Z,23.61
2017-10-03T12:00:07.214Z,23.69
2017-10-03T12:01:15.905Z,23.6
2017-10-03T12:02:24.886Z,23.63
2017-10-03T12:03:34.220Z,23.69
2017-10-03T12:04:43.529Z,23.63
2017-10-03T12:05:52.231Z,23.69
2017-10-03T12:07:01.545Z,23.73
2017-10-03T12:08:10.859Z,23.7
2017-10-03T12:09:20.194Z,23.66
2017-10-03T12:10:29.524Z,23.7
2017-10-03T12:11:38.826Z,23.78
2017-10-03T12:12:47.506Z,23.78
2017-10-03T12:13:56.502Z,23.63
2017-10-03T12:15:05.196Z,23.7
2017-10-03T12:16:13.897Z,23.73
2017-10-03T12:17:22.886Z,23.69
2017-10-03T12:18:32.508Z,23.78
2017-10-03T12:19:41.613Z,23.69
2017-10-03T12:20:50.939Z,23.65
2017-10-03T12:22:00.267Z,23.63
2017-10-03T12:23:09.568Z,23.72
2017-10-03T12:24:18.535Z,23.7
2017-10-03T12:25:27.526Z,23.72
2017-10-03T12:26:36.537Z,23.73
2017-10-03T12:27:45.201Z,23.73
2017-10-03T12:28:53.966Z,23.68
2017-10-03T12:30:03.264Z,23.79
2017-10-03T12:31:12.681Z,23.73
2017-10-03T12:32:21.664Z,23.75
2017-10-03T12:33:30.947Z,23.7
2017-10-03T12:35:12.325Z,23.72
2017-10-03T12:36:21.611Z,23.66
2017-10-03T12:37:30.587Z,23.72
2017-10-03T12:38:39.574Z,23.66
2017-10-03T12:39:48.568Z,23.65
2017-10-03T12:40:57.558Z,23.66
2017-10-03T12:42:06.555Z,23.68
2017-10-03T12:43:15.297Z,23.69
2017-10-03T12:44:24.903Z,23.65
2017-10-03T12:45:33.885Z,23.68
2017-10-03T12:46:42.567Z,23.68
2017-10-03T12:47:51.573Z,23.75
2017-10-03T12:49:00.543Z,23.7
2017-10-03T12:50:09.522Z,23.65
2017-10-03T12:51:19.514Z,23.76
2017-10-03T12:52:28.578Z,23.76
2017-10-03T12:53:37.273Z,23.72
2017-10-03T12:54:46.248Z,23.7
2017-10-03T12:55:54.919Z,23.68
2017-10-03T12:57:03.899Z,23.7
2017-10-03T12:58:13.539Z,23.68
2017-10-03T12:59:22.547Z,23.72
2017-10-03T13:00:31.541Z,23.73
2017-10-03T13:01:40.215Z,23.68
2017-10-03T13:02:49.221Z,23.68
2017-10-03T13:03:58.192Z,23.76
2017-10-03T13:05:07.206Z,23.79
2017-10-03T13:06:15.869Z,23.73
2017-10-03T13:07:24.887Z,23.75
2017-10-03T13:08:33.882Z,23.61
2017-10-03T13:09:42.602Z,23.78
2017-10-03T13:10:51.628Z,23.65
2017-10-03T13:12:00.346Z,23.72
2017-10-03T13:13:09.364Z,23.7
2017-10-03T13:14:18.447Z,23.61
2017-10-03T13:15:27.535Z,23.76
2017-10-03T13:16:36.542Z,23.68
2017-10-03T13:17:45.856Z,23.6
2017-10-03T13:18:54.517Z,23.61
2017-10-03T13:20:03.207Z,23.66
2017-10-03T13:21:11.905Z,23.63
2017-10-03T13:22:20.588Z,23.68
2017-10-03T13:23:29.582Z,23.69
2017-10-03T13:24:38.893Z,23.65
2017-10-03T13:25:47.934Z,23.7
2017-10-03T13:26:57.268Z,23.75
2017-10-03T13:28:05.955Z,23.73
2017-10-03T13:29:14.717Z,23.72
2017-10-03T13:30:23.725Z,23.75
2017-10-03T13:31:33.031Z,23.7
2017-10-03T13:32:42.031Z,23.68
2017-10-03T13:33:51.019Z,23.76
2017-10-03T13:35:00.045Z,23.7
2017-10-03T13:36:09.053Z,23.66
2017-10-03T13:37:18.053Z,23.78
2017-10-03T13:38:27.670Z,23.63
2017-10-03T13:39:36.850Z,23.61
2017-10-03T13:40:45.837Z,23.69
2017-10-03T13:41:55.141Z,23.7
2017-10-03T13:43:04.491Z,23.75
2017-10-03T13:44:13.176Z,23.73
2017-10-03T13:45:22.036Z,23.65
2017-10-03T13:46:31.059Z,23.72
2017-10-03T13:47:40.049Z,23.76
2017-10-03T13:48:49.456Z,23.68
2017-10-03T13:49:58.189Z,23.72
2017-10-03T13:51:07.186Z,23.7
2017-10-03T13:52:16.220Z,23.75
2017-10-03T13:53:25.261Z,23.79
2017-10-03T13:54:34.566Z,23.72
2017-10-03T13:55:43.866Z,23.72
2017-10-03T13:56:52.862Z,23.72
2017-10-03T13:58:02.166Z,23.75
2017-10-03T13:59:11.154Z,23.69
2017-10-03T14:00:19.840Z,23.69
2017-10-03T14:01:28.844Z,23.76
2017-10-03T14:02:38.162Z,23.7
2017-10-03T14:03:47.149Z,23.65
2017-10-03T14:04:55.810Z,23.65
2017-10-03T14:06:04.473Z,23.63
2017-10-03T14:07:14.177Z,23.65
2017-10-03T14:08:23.159Z,23.6
2017-10-03T14:09:32.453Z,23.66
2017-10-03T14:10:41.439Z,23.6
2017-10-03T14:11:50.727Z,23.63
2017-10-03T14:12:59.399Z,23.63
2017-10-03T14:14:08.389Z,23.58
2017-10-03T14:15:17.403Z,23.55
2017-10-03T14:16:26.083Z,23.57
2017-10-03T14:17:35.383Z,23.58
2017-10-03T14:18:44.376Z,23.55
2017-10-03T14:19:54.142Z,23.54
2017-10-03T14:21:03.436Z,23.55
2017-10-03T14:22:13.051Z,23.57
2017-10-03T14:23:21.755Z,23.6
2017-10-03T14:24:31.063Z,23.55
2017-10-03T14:25:40.224Z,23.57
2017-10-03T14:26:49.283Z,23.55
2017-10-03T14:27:58.295Z,23.58
2017-10-03T14:29:07.644Z,23.6
2017-10-03T14:30:17.298Z,23.57
2017-10-03T14:31:26.195Z,23.58
2017-10-03T14:32:35.525Z,23.63
2017-10-03T14:33:44.217Z,23.58
2017-10-03T14:34:52.926Z,23.57
2017-10-03T14:36:01.956Z,23.61
2017-10-03T14:37:11.299Z,23.61
2017-10-03T14:38:20.310Z,23.57
2017-10-03T14:39:29.611Z,23.69
2017-10-03T14:40:38.932Z,23.63
2017-10-03T14:41:47.666Z,23.6
2017-10-03T14:42:56.522Z,23.68
2017-10-03T14:44:05.217Z,23.55
2017-10-03T14:45:14.322Z,23.55
2017-10-03T14:46:23.634Z,23.55
2017-10-03T14:47:32.638Z,23.6
2017-10-03T14:48:42.000Z,23.58
2017-10-03T14:49:50.990Z,23.58
2017-10-03T14:53:32.048Z,23.55
2017-10-03T14:54:40.735Z,23.55
2017-10-03T14:55:49.401Z,23.55
2017-10-03T14:56:58.710Z,23.48
2017-10-03T14:58:07.397Z,23.51
2017-10-03T14:59:17.012Z,23.51
2017-10-03T15:00:26.332Z,23.46